sensor_id;sensor_type;location;lat;lon;timestamp;P1;durP1;ratioP1;P2;durP2;ratioP2
62951;SDS011;52163;52.212;-1.002;2023-03-01T00:01:25;4.00;;;1.70;;
62951;SDS011;52163;52.212;-1.002;2023-03-01T00:03:53;3.60;;;1.60;;
62951;SDS011;52163;52.212;-1.002;2023-03-01T00:06:20;2.40;;;1.20;;
62951;SDS011;52163;52.212;-1.002;2023-03-01T00:08:45;3.00;;;1.90;;
62951;SDS011;52163;52.212;-1.002;2023-03-01T00:13:37;5.20;;;1.80;;
62951;SDS011;52163;52.212;-1.002;2023-03-01T00:16:06;2.60;;;1.90;;
62951;SDS011;52163;52.212;-1.002;2023-03-01T00:18:38;5.60;;;1.60;;
62951;SDS011;52163;52.212;-1.002;2023-03-01T00:21:04;3.00;;;1.70;;
62951;SDS011;52163;52.212;-1.002;2023-03-01T00:23:30;7.00;;;1.90;;
62951;SDS011;52163;52.212;-1.002;2023-03-01T00:25:56;4.50;;;1.60;;
62951;SDS011;52163;52.212;-1.002;2023-03-01T00:28:22;4.10;;;1.40;;
62951;SDS011;52163;52.212;-1.002;2023-03-01T00:30:48;3.30;;;1.80;;
62951;SDS011;52163;52.212;-1.002;2023-03-01T00:33:13;4.80;;;1.80;;
62951;SDS011;52163;52.212;-1.002;2023-03-01T00:35:39;2.60;;;1.60;;
62951;SDS011;52163;52.212;-1.002;2023-03-01T00:38:04;2.60;;;1.40;;
62951;SDS011;52163;52.212;-1.002;2023-03-01T00:40:31;2.50;;;1.50;;
62951;SDS011;52163;52.212;-1.002;2023-03-01T00:42:58;2.40;;;1.30;;
62951;SDS011;52163;52.212;-1.002;2023-03-01T00:45:24;2.50;;;1.10;;
62951;SDS011;52163;52.212;-1.002;2023-03-01T00:47:50;2.90;;;1.30;;
62951;SDS011;52163;52.212;-1.002;2023-03-01T00:50:16;2.40;;;1.40;;
62951;SDS011;52163;52.212;-1.002;2023-03-01T00:52:43;3.10;;;1.40;;
62951;SDS011;52163;52.212;-1.002;2023-03-01T00:55:08;4.10;;;1.30;;
62951;SDS011;52163;52.212;-1.002;2023-03-01T00:57:35;2.90;;;1.50;;
62951;SDS011;52163;52.212;-1.002;2023-03-01T01:00:01;3.80;;;1.40;;
62951;SDS011;52163;52.212;-1.002;2023-03-01T01:02:28;2.80;;;1.30;;
62951;SDS011;52163;52.212;-1.002;2023-03-01T01:04:53;4.80;;;1.70;;
62951;SDS011;52163;52.212;-1.002;2023-03-01T01:07:18;2.20;;;1.00;;
62951;SDS011;52163;52.212;-1.002;2023-03-01T01:09:45;3.20;;;1.40;;
62951;SDS011;52163;52.212;-1.002;2023-03-01T01:12:11;2.00;;;1.20;;
62951;SDS011;52163;52.212;-1.002;2023-03-01T01:14:36;5.10;;;1.60;;
62951;SDS011;52163;52.212;-1.002;2023-03-01T01:17:02;6.80;;;1.90;;
62951;SDS011;52163;52.212;-1.002;2023-03-01T01:19:27;2.50;;;1.10;;
62951;SDS011;52163;52.212;-1.002;2023-03-01T01:21:53;2.90;;;1.40;;
62951;SDS011;52163;52.212;-1.002;2023-03-01T01:24:19;3.00;;;1.30;;
62951;SDS011;52163;52.212;-1.002;2023-03-01T01:26:48;3.30;;;1.40;;
62951;SDS011;52163;52.212;-1.002;2023-03-01T01:29:13;4.10;;;1.70;;
62951;SDS011;52163;52.212;-1.002;2023-03-01T01:31:40;5.00;;;2.10;;
62951;SDS011;52163;52.212;-1.002;2023-03-01T01:34:07;6.00;;;2.00;;
62951;SDS011;52163;52.212;-1.002;2023-03-01T01:36:37;3.80;;;1.40;;
62951;SDS011;52163;52.212;-1.002;2023-03-01T01:39:02;2.60;;;1.60;;
62951;SDS011;52163;52.212;-1.002;2023-03-01T01:41:28;5.00;;;1.50;;
62951;SDS011;52163;52.212;-1.002;2023-03-01T01:49:14;4.40;;;1.20;;
62951;SDS011;52163;52.212;-1.002;2023-03-01T01:51:51;3.50;;;1.60;;
62951;SDS011;52163;52.212;-1.002;2023-03-01T01:54:47;3.70;;;2.20;;
62951;SDS011;52163;52.212;-1.002;2023-03-01T01:58:02;3.60;;;2.00;;
62951;SDS011;52163;52.212;-1.002;2023-03-01T02:00:12;3.00;;;1.90;;
62951;SDS011;52163;52.212;-1.002;2023-03-01T02:02:38;5.20;;;1.60;;
62951;SDS011;52163;52.212;-1.002;2023-03-01T02:05:08;2.40;;;1.50;;
62951;SDS011;52163;52.212;-1.002;2023-03-01T02:07:39;4.00;;;1.50;;
62951;SDS011;52163;52.212;-1.002;2023-03-01T02:10:08;3.60;;;1.50;;
62951;SDS011;52163;52.212;-1.002;2023-03-01T02:12:34;3.70;;;2.00;;
62951;SDS011;52163;52.212;-1.002;2023-03-01T02:15:01;3.40;;;1.70;;
62951;SDS011;52163;52.212;-1.002;2023-03-01T02:17:26;5.50;;;2.20;;
62951;SDS011;52163;52.212;-1.002;2023-03-01T02:22:32;3.50;;;2.00;;
62951;SDS011;52163;52.212;-1.002;2023-03-01T02:27:36;3.10;;;1.70;;
62951;SDS011;52163;52.212;-1.002;2023-03-01T02:30:09;3.30;;;1.70;;
62951;SDS011;52163;52.212;-1.002;2023-03-01T02:32:38;5.90;;;1.70;;
62951;SDS011;52163;52.212;-1.002;2023-03-01T02:35:10;3.20;;;1.60;;
62951;SDS011;52163;52.212;-1.002;2023-03-01T02:37:39;4.20;;;1.70;;
62951;SDS011;52163;52.212;-1.002;2023-03-01T02:40:08;3.60;;;2.10;;
62951;SDS011;52163;52.212;-1.002;2023-03-01T02:42:40;4.60;;;1.90;;
62951;SDS011;52163;52.212;-1.002;2023-03-01T02:45:13;4.00;;;1.80;;
62951;SDS011;52163;52.212;-1.002;2023-03-01T02:47:38;5.10;;;2.00;;
62951;SDS011;52163;52.212;-1.002;2023-03-01T02:50:10;2.80;;;1.80;;
62951;SDS011;52163;52.212;-1.002;2023-03-01T02:52:48;5.40;;;1.90;;
62951;SDS011;52163;52.212;-1.002;2023-03-01T02:55:27;5.00;;;1.80;;
62951;SDS011;52163;52.212;-1.002;2023-03-01T02:57:52;3.80;;;1.90;;
62951;SDS011;52163;52.212;-1.002;2023-03-01T03:00:38;2.90;;;1.90;;
62951;SDS011;52163;52.212;-1.002;2023-03-01T03:03:10;5.70;;;2.00;;
62951;SDS011;52163;52.212;-1.002;2023-03-01T03:05:40;4.90;;;1.90;;
62951;SDS011;52163;52.212;-1.002;2023-03-01T03:08:05;5.60;;;1.60;;
62951;SDS011;52163;52.212;-1.002;2023-03-01T03:10:33;3.30;;;2.20;;
62951;SDS011;52163;52.212;-1.002;2023-03-01T03:13:02;3.20;;;1.70;;
62951;SDS011;52163;52.212;-1.002;2023-03-01T03:15:30;3.20;;;1.40;;
62951;SDS011;52163;52.212;-1.002;2023-03-01T03:17:56;4.00;;;1.40;;
62951;SDS011;52163;52.212;-1.002;2023-03-01T03:20:23;2.30;;;1.40;;
62951;SDS011;52163;52.212;-1.002;2023-03-01T03:22:52;2.60;;;1.00;;
62951;SDS011;52163;52.212;-1.002;2023-03-01T03:25:19;3.40;;;1.10;;
62951;SDS011;52163;52.212;-1.002;2023-03-01T03:27:46;3.10;;;1.10;;
62951;SDS011;52163;52.212;-1.002;2023-03-01T03:30:15;1.70;;;0.80;;
62951;SDS011;52163;52.212;-1.002;2023-03-01T03:32:43;2.50;;;0.70;;
62951;SDS011;52163;52.212;-1.002;2023-03-01T03:35:18;1.80;;;0.80;;
62951;SDS011;52163;52.212;-1.002;2023-03-01T03:37:49;3.70;;;1.20;;
62951;SDS011;52163;52.212;-1.002;2023-03-01T03:40:48;2.70;;;1.20;;
62951;SDS011;52163;52.212;-1.002;2023-03-01T03:43:28;3.80;;;1.20;;
62951;SDS011;52163;52.212;-1.002;2023-03-01T03:45:55;5.60;;;1.40;;
62951;SDS011;52163;52.212;-1.002;2023-03-01T03:48:22;1.90;;;1.00;;
62951;SDS011;52163;52.212;-1.002;2023-03-01T03:50:49;3.10;;;1.10;;
62951;SDS011;52163;52.212;-1.002;2023-03-01T03:53:17;4.50;;;1.50;;
62951;SDS011;52163;52.212;-1.002;2023-03-01T03:55:43;3.40;;;1.20;;
62951;SDS011;52163;52.212;-1.002;2023-03-01T03:58:09;4.20;;;1.60;;
62951;SDS011;52163;52.212;-1.002;2023-03-01T04:00:43;4.70;;;0.90;;
62951;SDS011;52163;52.212;-1.002;2023-03-01T04:03:10;7.10;;;1.80;;
62951;SDS011;52163;52.212;-1.002;2023-03-01T04:05:37;8.50;;;1.80;;
62951;SDS011;52163;52.212;-1.002;2023-03-01T04:08:04;4.60;;;1.50;;
62951;SDS011;52163;52.212;-1.002;2023-03-01T04:10:33;4.80;;;1.60;;
62951;SDS011;52163;52.212;-1.002;2023-03-01T04:13:08;4.30;;;1.80;;
62951;SDS011;52163;52.212;-1.002;2023-03-01T04:15:36;4.40;;;1.60;;
62951;SDS011;52163;52.212;-1.002;2023-03-01T04:18:02;6.10;;;1.50;;
62951;SDS011;52163;52.212;-1.002;2023-03-01T04:20:30;4.40;;;1.40;;
62951;SDS011;52163;52.212;-1.002;2023-03-01T04:25:39;4.60;;;1.80;;
62951;SDS011;52163;52.212;-1.002;2023-03-01T04:28:06;8.40;;;1.80;;
62951;SDS011;52163;52.212;-1.002;2023-03-01T04:30:33;4.80;;;1.50;;
62951;SDS011;52163;52.212;-1.002;2023-03-01T04:33:03;6.10;;;1.10;;
62951;SDS011;52163;52.212;-1.002;2023-03-01T04:35:32;2.40;;;1.20;;
62951;SDS011;52163;52.212;-1.002;2023-03-01T04:37:59;2.90;;;1.10;;
62951;SDS011;52163;52.212;-1.002;2023-03-01T04:40:25;2.80;;;1.10;;
62951;SDS011;52163;52.212;-1.002;2023-03-01T04:42:50;7.20;;;1.40;;
62951;SDS011;52163;52.212;-1.002;2023-03-01T04:45:16;5.50;;;1.60;;
62951;SDS011;52163;52.212;-1.002;2023-03-01T04:47:42;2.60;;;1.30;;
62951;SDS011;52163;52.212;-1.002;2023-03-01T04:50:11;5.40;;;1.60;;
62951;SDS011;52163;52.212;-1.002;2023-03-01T04:52:39;5.00;;;1.70;;
62951;SDS011;52163;52.212;-1.002;2023-03-01T04:55:05;6.00;;;1.50;;
62951;SDS011;52163;52.212;-1.002;2023-03-01T04:57:31;3.30;;;1.10;;
62951;SDS011;52163;52.212;-1.002;2023-03-01T04:59:57;4.50;;;1.20;;
62951;SDS011;52163;52.212;-1.002;2023-03-01T05:02:22;4.10;;;1.40;;
62951;SDS011;52163;52.212;-1.002;2023-03-01T05:04:48;8.80;;;1.40;;
62951;SDS011;52163;52.212;-1.002;2023-03-01T05:07:14;5.20;;;1.50;;
62951;SDS011;52163;52.212;-1.002;2023-03-01T05:09:47;6.10;;;2.00;;
62951;SDS011;52163;52.212;-1.002;2023-03-01T05:12:13;4.80;;;1.70;;
62951;SDS011;52163;52.212;-1.002;2023-03-01T05:14:39;3.80;;;1.50;;
62951;SDS011;52163;52.212;-1.002;2023-03-01T05:17:06;4.60;;;1.70;;
62951;SDS011;52163;52.212;-1.002;2023-03-01T05:19:32;4.30;;;1.40;;
62951;SDS011;52163;52.212;-1.002;2023-03-01T05:21:58;7.70;;;1.60;;
62951;SDS011;52163;52.212;-1.002;2023-03-01T05:24:27;4.20;;;2.20;;
62951;SDS011;52163;52.212;-1.002;2023-03-01T05:26:53;4.40;;;1.70;;
62951;SDS011;52163;52.212;-1.002;2023-03-01T05:29:19;10.50;;;1.60;;
62951;SDS011;52163;52.212;-1.002;2023-03-01T05:31:56;8.70;;;2.00;;
62951;SDS011;52163;52.212;-1.002;2023-03-01T05:34:24;6.00;;;1.70;;
62951;SDS011;52163;52.212;-1.002;2023-03-01T05:36:52;4.20;;;1.90;;
62951;SDS011;52163;52.212;-1.002;2023-03-01T05:39:19;3.60;;;1.60;;
62951;SDS011;52163;52.212;-1.002;2023-03-01T05:41:51;4.80;;;1.90;;
62951;SDS011;52163;52.212;-1.002;2023-03-01T05:44:21;4.60;;;1.60;;
62951;SDS011;52163;52.212;-1.002;2023-03-01T05:46:47;6.80;;;2.30;;
62951;SDS011;52163;52.212;-1.002;2023-03-01T05:49:13;6.00;;;1.80;;
62951;SDS011;52163;52.212;-1.002;2023-03-01T05:51:39;8.80;;;2.00;;
62951;SDS011;52163;52.212;-1.002;2023-03-01T05:54:06;4.50;;;1.90;;
62951;SDS011;52163;52.212;-1.002;2023-03-01T05:56:33;5.10;;;1.60;;
62951;SDS011;52163;52.212;-1.002;2023-03-01T05:59:00;5.40;;;1.80;;
62951;SDS011;52163;52.212;-1.002;2023-03-01T06:01:26;4.90;;;1.70;;
62951;SDS011;52163;52.212;-1.002;2023-03-01T06:03:52;5.10;;;1.60;;
62951;SDS011;52163;52.212;-1.002;2023-03-01T06:06:17;5.90;;;2.30;;
62951;SDS011;52163;52.212;-1.002;2023-03-01T06:08:42;10.50;;;1.90;;
62951;SDS011;52163;52.212;-1.002;2023-03-01T06:11:08;5.20;;;1.60;;
62951;SDS011;52163;52.212;-1.002;2023-03-01T06:13:35;4.20;;;1.80;;
62951;SDS011;52163;52.212;-1.002;2023-03-01T06:16:00;5.00;;;1.70;;
62951;SDS011;52163;52.212;-1.002;2023-03-01T06:18:28;5.00;;;1.90;;
62951;SDS011;52163;52.212;-1.002;2023-03-01T06:20:54;4.60;;;1.10;;
62951;SDS011;52163;52.212;-1.002;2023-03-01T06:23:21;4.20;;;1.10;;
62951;SDS011;52163;52.212;-1.002;2023-03-01T06:25:47;3.90;;;1.40;;
62951;SDS011;52163;52.212;-1.002;2023-03-01T06:28:12;2.80;;;1.20;;
62951;SDS011;52163;52.212;-1.002;2023-03-01T06:30:37;3.80;;;1.30;;
62951;SDS011;52163;52.212;-1.002;2023-03-01T06:33:03;3.60;;;1.30;;
62951;SDS011;52163;52.212;-1.002;2023-03-01T06:35:28;3.30;;;1.40;;
62951;SDS011;52163;52.212;-1.002;2023-03-01T06:37:56;3.60;;;1.40;;
62951;SDS011;52163;52.212;-1.002;2023-03-01T06:40:22;3.00;;;1.10;;
62951;SDS011;52163;52.212;-1.002;2023-03-01T06:42:49;3.20;;;1.00;;
62951;SDS011;52163;52.212;-1.002;2023-03-01T06:45:15;4.10;;;1.10;;
62951;SDS011;52163;52.212;-1.002;2023-03-01T06:47:42;5.20;;;1.40;;
62951;SDS011;52163;52.212;-1.002;2023-03-01T06:50:08;4.50;;;1.40;;
62951;SDS011;52163;52.212;-1.002;2023-03-01T06:52:34;4.10;;;1.10;;
62951;SDS011;52163;52.212;-1.002;2023-03-01T06:54:59;3.60;;;1.10;;
62951;SDS011;52163;52.212;-1.002;2023-03-01T06:57:25;3.20;;;1.20;;
62951;SDS011;52163;52.212;-1.002;2023-03-01T06:59:51;3.00;;;1.20;;
62951;SDS011;52163;52.212;-1.002;2023-03-01T07:02:16;6.60;;;1.10;;
62951;SDS011;52163;52.212;-1.002;2023-03-01T07:04:42;4.10;;;1.30;;
62951;SDS011;52163;52.212;-1.002;2023-03-01T07:07:08;4.70;;;1.10;;
62951;SDS011;52163;52.212;-1.002;2023-03-01T07:09:33;3.50;;;1.10;;
62951;SDS011;52163;52.212;-1.002;2023-03-01T07:11:59;5.40;;;1.30;;
62951;SDS011;52163;52.212;-1.002;2023-03-01T07:14:24;3.30;;;1.30;;
62951;SDS011;52163;52.212;-1.002;2023-03-01T07:16:51;5.40;;;1.10;;
62951;SDS011;52163;52.212;-1.002;2023-03-01T07:19:17;2.60;;;1.10;;
62951;SDS011;52163;52.212;-1.002;2023-03-01T07:21:42;5.00;;;2.00;;
62951;SDS011;52163;52.212;-1.002;2023-03-01T07:24:08;6.20;;;1.30;;
62951;SDS011;52163;52.212;-1.002;2023-03-01T07:26:34;2.80;;;1.30;;
62951;SDS011;52163;52.212;-1.002;2023-03-01T07:29:00;3.10;;;1.50;;
62951;SDS011;52163;52.212;-1.002;2023-03-01T07:31:26;6.30;;;1.70;;
62951;SDS011;52163;52.212;-1.002;2023-03-01T07:33:55;3.80;;;1.40;;
62951;SDS011;52163;52.212;-1.002;2023-03-01T07:36:21;6.50;;;1.80;;
62951;SDS011;52163;52.212;-1.002;2023-03-01T07:38:47;6.30;;;1.70;;
62951;SDS011;52163;52.212;-1.002;2023-03-01T07:41:12;2.90;;;1.40;;
62951;SDS011;52163;52.212;-1.002;2023-03-01T07:43:38;5.90;;;1.50;;
62951;SDS011;52163;52.212;-1.002;2023-03-01T07:46:04;4.80;;;1.40;;
62951;SDS011;52163;52.212;-1.002;2023-03-01T07:48:30;4.00;;;1.50;;
62951;SDS011;52163;52.212;-1.002;2023-03-01T07:51:00;3.20;;;1.70;;
62951;SDS011;52163;52.212;-1.002;2023-03-01T07:53:27;4.80;;;1.80;;
62951;SDS011;52163;52.212;-1.002;2023-03-01T07:56:09;3.50;;;1.40;;
62951;SDS011;52163;52.212;-1.002;2023-03-01T07:58:37;4.30;;;1.70;;
62951;SDS011;52163;52.212;-1.002;2023-03-01T08:01:06;4.00;;;1.40;;
62951;SDS011;52163;52.212;-1.002;2023-03-01T08:03:33;6.50;;;1.90;;
62951;SDS011;52163;52.212;-1.002;2023-03-01T08:06:00;3.50;;;1.60;;
62951;SDS011;52163;52.212;-1.002;2023-03-01T08:08:27;5.60;;;2.20;;
62951;SDS011;52163;52.212;-1.002;2023-03-01T08:10:52;6.20;;;2.10;;
62951;SDS011;52163;52.212;-1.002;2023-03-01T08:13:21;3.70;;;2.10;;
62951;SDS011;52163;52.212;-1.002;2023-03-01T08:15:48;7.30;;;2.60;;
62951;SDS011;52163;52.212;-1.002;2023-03-01T08:18:14;4.60;;;1.80;;
62951;SDS011;52163;52.212;-1.002;2023-03-01T08:20:40;5.20;;;1.80;;
62951;SDS011;52163;52.212;-1.002;2023-03-01T08:23:06;7.00;;;2.30;;
62951;SDS011;52163;52.212;-1.002;2023-03-01T08:25:31;4.60;;;2.20;;
62951;SDS011;52163;52.212;-1.002;2023-03-01T08:27:56;3.60;;;1.60;;
62951;SDS011;52163;52.212;-1.002;2023-03-01T08:30:22;6.40;;;2.30;;
62951;SDS011;52163;52.212;-1.002;2023-03-01T08:32:49;5.60;;;1.90;;
62951;SDS011;52163;52.212;-1.002;2023-03-01T08:35:15;7.80;;;1.90;;
62951;SDS011;52163;52.212;-1.002;2023-03-01T08:37:41;6.10;;;2.00;;
62951;SDS011;52163;52.212;-1.002;2023-03-01T08:40:06;3.60;;;1.70;;
62951;SDS011;52163;52.212;-1.002;2023-03-01T08:42:35;3.50;;;1.10;;
62951;SDS011;52163;52.212;-1.002;2023-03-01T08:45:01;3.60;;;1.70;;
62951;SDS011;52163;52.212;-1.002;2023-03-01T08:47:28;2.50;;;1.00;;
62951;SDS011;52163;52.212;-1.002;2023-03-01T08:49:54;6.90;;;2.00;;
62951;SDS011;52163;52.212;-1.002;2023-03-01T08:52:19;3.30;;;1.10;;
62951;SDS011;52163;52.212;-1.002;2023-03-01T08:54:47;4.70;;;1.40;;
62951;SDS011;52163;52.212;-1.002;2023-03-01T08:57:14;2.70;;;1.20;;
62951;SDS011;52163;52.212;-1.002;2023-03-01T08:59:39;3.60;;;1.70;;
62951;SDS011;52163;52.212;-1.002;2023-03-01T09:02:16;7.30;;;1.50;;
62951;SDS011;52163;52.212;-1.002;2023-03-01T09:04:43;3.90;;;1.30;;
62951;SDS011;52163;52.212;-1.002;2023-03-01T09:07:09;3.40;;;1.30;;
62951;SDS011;52163;52.212;-1.002;2023-03-01T09:09:35;2.60;;;0.90;;
62951;SDS011;52163;52.212;-1.002;2023-03-01T09:12:01;5.20;;;1.60;;
62951;SDS011;52163;52.212;-1.002;2023-03-01T09:14:27;3.20;;;1.20;;
62951;SDS011;52163;52.212;-1.002;2023-03-01T09:16:52;3.00;;;1.30;;
62951;SDS011;52163;52.212;-1.002;2023-03-01T09:19:18;4.80;;;1.20;;
62951;SDS011;52163;52.212;-1.002;2023-03-01T09:21:43;5.50;;;1.60;;
62951;SDS011;52163;52.212;-1.002;2023-03-01T09:24:26;5.40;;;1.50;;
62951;SDS011;52163;52.212;-1.002;2023-03-01T09:26:55;4.00;;;1.10;;
62951;SDS011;52163;52.212;-1.002;2023-03-01T09:29:21;3.40;;;1.40;;
62951;SDS011;52163;52.212;-1.002;2023-03-01T09:31:47;3.70;;;1.20;;
62951;SDS011;52163;52.212;-1.002;2023-03-01T09:34:13;2.70;;;1.10;;
62951;SDS011;52163;52.212;-1.002;2023-03-01T09:36:41;2.70;;;1.20;;
62951;SDS011;52163;52.212;-1.002;2023-03-01T09:39:07;3.70;;;1.20;;
62951;SDS011;52163;52.212;-1.002;2023-03-01T09:44:31;3.90;;;1.50;;
62951;SDS011;52163;52.212;-1.002;2023-03-01T09:47:12;3.50;;;1.40;;
62951;SDS011;52163;52.212;-1.002;2023-03-01T09:49:45;2.60;;;1.40;;
62951;SDS011;52163;52.212;-1.002;2023-03-01T10:02:42;5.20;;;2.00;;
62951;SDS011;52163;52.212;-1.002;2023-03-01T10:08:11;4.30;;;1.90;;
62951;SDS011;52163;52.212;-1.002;2023-03-01T10:10:41;4.30;;;2.00;;
62951;SDS011;52163;52.212;-1.002;2023-03-01T10:16:03;5.70;;;2.20;;
62951;SDS011;52163;52.212;-1.002;2023-03-01T10:18:36;5.40;;;2.10;;
62951;SDS011;52163;52.212;-1.002;2023-03-01T10:21:15;4.00;;;1.90;;
62951;SDS011;52163;52.212;-1.002;2023-03-01T10:23:42;4.10;;;2.30;;
62951;SDS011;52163;52.212;-1.002;2023-03-01T10:26:14;4.00;;;2.40;;
62951;SDS011;52163;52.212;-1.002;2023-03-01T10:29:04;3.70;;;1.60;;
62951;SDS011;52163;52.212;-1.002;2023-03-01T10:31:41;4.30;;;2.00;;
62951;SDS011;52163;52.212;-1.002;2023-03-01T10:34:13;5.00;;;2.10;;
62951;SDS011;52163;52.212;-1.002;2023-03-01T10:36:46;3.60;;;1.60;;
62951;SDS011;52163;52.212;-1.002;2023-03-01T10:39:15;3.60;;;1.90;;
62951;SDS011;52163;52.212;-1.002;2023-03-01T10:41:56;3.60;;;1.40;;
62951;SDS011;52163;52.212;-1.002;2023-03-01T10:44:44;3.90;;;1.50;;
62951;SDS011;52163;52.212;-1.002;2023-03-01T10:47:25;4.60;;;1.80;;
62951;SDS011;52163;52.212;-1.002;2023-03-01T10:52:22;3.40;;;1.50;;
62951;SDS011;52163;52.212;-1.002;2023-03-01T10:54:51;4.80;;;2.00;;
62951;SDS011;52163;52.212;-1.002;2023-03-01T10:57:29;3.10;;;1.40;;
62951;SDS011;52163;52.212;-1.002;2023-03-01T11:00:19;1.60;;;1.20;;
62951;SDS011;52163;52.212;-1.002;2023-03-01T11:02:48;3.10;;;1.50;;
62951;SDS011;52163;52.212;-1.002;2023-03-01T11:05:28;2.40;;;1.10;;
62951;SDS011;52163;52.212;-1.002;2023-03-01T11:07:58;5.60;;;1.50;;
62951;SDS011;52163;52.212;-1.002;2023-03-01T11:10:26;3.70;;;1.60;;
62951;SDS011;52163;52.212;-1.002;2023-03-01T11:13:06;4.30;;;1.40;;
62951;SDS011;52163;52.212;-1.002;2023-03-01T11:15:33;1.70;;;1.10;;
62951;SDS011;52163;52.212;-1.002;2023-03-01T11:17:58;1.90;;;1.10;;
62951;SDS011;52163;52.212;-1.002;2023-03-01T11:20:31;1.90;;;1.00;;
62951;SDS011;52163;52.212;-1.002;2023-03-01T11:23:10;3.10;;;0.80;;
62951;SDS011;52163;52.212;-1.002;2023-03-01T11:25:42;3.40;;;1.30;;
62951;SDS011;52163;52.212;-1.002;2023-03-01T11:28:12;2.60;;;1.40;;
62951;SDS011;52163;52.212;-1.002;2023-03-01T11:30:51;3.70;;;1.20;;
62951;SDS011;52163;52.212;-1.002;2023-03-01T11:39:47;3.70;;;1.10;;
62951;SDS011;52163;52.212;-1.002;2023-03-01T11:42:15;1.60;;;0.90;;
62951;SDS011;52163;52.212;-1.002;2023-03-01T11:44:54;2.80;;;1.10;;
62951;SDS011;52163;52.212;-1.002;2023-03-01T11:50:41;2.00;;;0.90;;
62951;SDS011;52163;52.212;-1.002;2023-03-01T11:59:05;1.80;;;0.90;;
62951;SDS011;52163;52.212;-1.002;2023-03-01T12:01:42;2.80;;;0.90;;
62951;SDS011;52163;52.212;-1.002;2023-03-01T12:24:10;1.20;;;0.60;;
62951;SDS011;52163;52.212;-1.002;2023-03-01T12:35:38;1.00;;;0.60;;
62951;SDS011;52163;52.212;-1.002;2023-03-01T12:49:08;1.40;;;0.80;;
62951;SDS011;52163;52.212;-1.002;2023-03-01T12:51:55;2.80;;;0.80;;
62951;SDS011;52163;52.212;-1.002;2023-03-01T12:54:29;1.20;;;0.60;;
62951;SDS011;52163;52.212;-1.002;2023-03-01T12:57:05;2.80;;;0.80;;
62951;SDS011;52163;52.212;-1.002;2023-03-01T12:59:39;0.60;;;0.50;;
62951;SDS011;52163;52.212;-1.002;2023-03-01T13:07:49;2.20;;;1.00;;
62951;SDS011;52163;52.212;-1.002;2023-03-01T13:10:34;3.30;;;0.70;;
62951;SDS011;52163;52.212;-1.002;2023-03-01T13:13:14;1.50;;;0.70;;
62951;SDS011;52163;52.212;-1.002;2023-03-01T13:15:45;0.70;;;0.40;;
62951;SDS011;52163;52.212;-1.002;2023-03-01T13:20:48;1.50;;;0.50;;
62951;SDS011;52163;52.212;-1.002;2023-03-01T13:26:03;2.70;;;0.80;;
62951;SDS011;52163;52.212;-1.002;2023-03-01T13:28:46;1.90;;;0.80;;
62951;SDS011;52163;52.212;-1.002;2023-03-01T13:33:44;2.70;;;0.70;;
62951;SDS011;52163;52.212;-1.002;2023-03-01T13:36:13;1.80;;;0.60;;
62951;SDS011;52163;52.212;-1.002;2023-03-01T13:39:02;0.80;;;0.60;;
62951;SDS011;52163;52.212;-1.002;2023-03-01T13:46:45;1.40;;;0.40;;
62951;SDS011;52163;52.212;-1.002;2023-03-01T13:49:14;1.30;;;0.50;;
62951;SDS011;52163;52.212;-1.002;2023-03-01T13:51:46;3.30;;;0.90;;
62951;SDS011;52163;52.212;-1.002;2023-03-01T13:54:12;1.10;;;0.50;;
62951;SDS011;52163;52.212;-1.002;2023-03-01T13:56:40;1.60;;;0.60;;
62951;SDS011;52163;52.212;-1.002;2023-03-01T14:07:10;2.50;;;0.90;;
62951;SDS011;52163;52.212;-1.002;2023-03-01T14:09:44;4.80;;;1.00;;
62951;SDS011;52163;52.212;-1.002;2023-03-01T14:12:25;3.00;;;1.00;;
62951;SDS011;52163;52.212;-1.002;2023-03-01T14:15:10;3.20;;;0.80;;
62951;SDS011;52163;52.212;-1.002;2023-03-01T14:20:27;6.00;;;1.60;;
62951;SDS011;52163;52.212;-1.002;2023-03-01T14:22:58;3.50;;;0.90;;
62951;SDS011;52163;52.212;-1.002;2023-03-01T14:25:27;3.60;;;1.50;;
62951;SDS011;52163;52.212;-1.002;2023-03-01T14:28:13;1.90;;;0.80;;
62951;SDS011;52163;52.212;-1.002;2023-03-01T14:30:47;2.50;;;0.70;;
62951;SDS011;52163;52.212;-1.002;2023-03-01T14:33:25;4.10;;;1.10;;
62951;SDS011;52163;52.212;-1.002;2023-03-01T14:35:55;2.90;;;0.90;;
62951;SDS011;52163;52.212;-1.002;2023-03-01T14:38:28;4.20;;;1.20;;
62951;SDS011;52163;52.212;-1.002;2023-03-01T14:41:10;3.90;;;1.10;;
62951;SDS011;52163;52.212;-1.002;2023-03-01T14:43:41;2.70;;;1.00;;
62951;SDS011;52163;52.212;-1.002;2023-03-01T14:46:20;1.20;;;0.60;;
62951;SDS011;52163;52.212;-1.002;2023-03-01T14:48:53;2.60;;;0.60;;
62951;SDS011;52163;52.212;-1.002;2023-03-01T14:51:21;2.00;;;1.20;;
62951;SDS011;52163;52.212;-1.002;2023-03-01T14:53:47;3.00;;;1.00;;
62951;SDS011;52163;52.212;-1.002;2023-03-01T14:56:14;5.30;;;1.00;;
62951;SDS011;52163;52.212;-1.002;2023-03-01T14:58:44;2.90;;;1.10;;
62951;SDS011;52163;52.212;-1.002;2023-03-01T15:01:13;2.10;;;0.70;;
62951;SDS011;52163;52.212;-1.002;2023-03-01T15:03:41;1.40;;;0.40;;
62951;SDS011;52163;52.212;-1.002;2023-03-01T15:06:14;1.80;;;0.60;;
62951;SDS011;52163;52.212;-1.002;2023-03-01T15:08:47;0.80;;;0.50;;
62951;SDS011;52163;52.212;-1.002;2023-03-01T15:11:20;2.20;;;0.70;;
62951;SDS011;52163;52.212;-1.002;2023-03-01T15:13:49;8.10;;;1.10;;
62951;SDS011;52163;52.212;-1.002;2023-03-01T15:16:19;4.30;;;0.90;;
62951;SDS011;52163;52.212;-1.002;2023-03-01T15:18:54;1.30;;;0.50;;
62951;SDS011;52163;52.212;-1.002;2023-03-01T15:21:25;2.20;;;0.70;;
62951;SDS011;52163;52.212;-1.002;2023-03-01T15:23:56;1.70;;;0.50;;
62951;SDS011;52163;52.212;-1.002;2023-03-01T15:26:43;2.70;;;0.70;;
62951;SDS011;52163;52.212;-1.002;2023-03-01T15:29:16;2.10;;;0.50;;
62951;SDS011;52163;52.212;-1.002;2023-03-01T15:31:53;3.00;;;1.00;;
62951;SDS011;52163;52.212;-1.002;2023-03-01T15:34:23;2.80;;;0.80;;
62951;SDS011;52163;52.212;-1.002;2023-03-01T15:36:51;2.80;;;0.90;;
62951;SDS011;52163;52.212;-1.002;2023-03-01T15:44:39;1.80;;;0.70;;
62951;SDS011;52163;52.212;-1.002;2023-03-01T15:49:53;2.60;;;0.80;;
62951;SDS011;52163;52.212;-1.002;2023-03-01T15:52:29;3.30;;;1.10;;
62951;SDS011;52163;52.212;-1.002;2023-03-01T15:55:03;2.30;;;1.00;;
62951;SDS011;52163;52.212;-1.002;2023-03-01T15:57:30;2.60;;;0.90;;
62951;SDS011;52163;52.212;-1.002;2023-03-01T15:59:56;3.20;;;0.70;;
62951;SDS011;52163;52.212;-1.002;2023-03-01T16:02:22;2.80;;;0.70;;
62951;SDS011;52163;52.212;-1.002;2023-03-01T16:04:49;1.90;;;0.80;;
62951;SDS011;52163;52.212;-1.002;2023-03-01T16:07:15;1.50;;;0.80;;
62951;SDS011;52163;52.212;-1.002;2023-03-01T16:09:41;1.20;;;0.70;;
62951;SDS011;52163;52.212;-1.002;2023-03-01T16:12:09;3.00;;;0.90;;
62951;SDS011;52163;52.212;-1.002;2023-03-01T16:14:39;2.60;;;1.10;;
62951;SDS011;52163;52.212;-1.002;2023-03-01T16:17:04;2.30;;;1.00;;
62951;SDS011;52163;52.212;-1.002;2023-03-01T16:19:30;2.90;;;1.10;;
62951;SDS011;52163;52.212;-1.002;2023-03-01T16:21:55;0.80;;;0.60;;
62951;SDS011;52163;52.212;-1.002;2023-03-01T16:24:21;1.90;;;0.70;;
62951;SDS011;52163;52.212;-1.002;2023-03-01T16:26:46;3.80;;;1.00;;
62951;SDS011;52163;52.212;-1.002;2023-03-01T16:29:11;3.40;;;0.90;;
62951;SDS011;52163;52.212;-1.002;2023-03-01T16:31:37;3.70;;;1.00;;
62951;SDS011;52163;52.212;-1.002;2023-03-01T16:34:02;2.40;;;0.70;;
62951;SDS011;52163;52.212;-1.002;2023-03-01T16:36:28;2.60;;;0.90;;
62951;SDS011;52163;52.212;-1.002;2023-03-01T16:38:54;6.10;;;1.10;;
62951;SDS011;52163;52.212;-1.002;2023-03-01T16:41:21;4.10;;;0.90;;
62951;SDS011;52163;52.212;-1.002;2023-03-01T16:43:48;2.50;;;0.90;;
62951;SDS011;52163;52.212;-1.002;2023-03-01T16:46:18;4.10;;;1.40;;
62951;SDS011;52163;52.212;-1.002;2023-03-01T16:48:47;4.40;;;1.10;;
62951;SDS011;52163;52.212;-1.002;2023-03-01T16:51:12;3.80;;;1.30;;
62951;SDS011;52163;52.212;-1.002;2023-03-01T16:53:38;4.20;;;1.20;;
62951;SDS011;52163;52.212;-1.002;2023-03-01T16:56:06;4.20;;;1.30;;